sensor_id;sensor_type;location;lat;lon;timestamp;temperature;humidity
8537;DHT22;4306;50.210;10.628;2022-07-06T00:00:25;17.40;79.80
8537;DHT22;4306;50.210;10.628;2022-07-06T00:02:52;17.40;79.70
8537;DHT22;4306;50.210;10.628;2022-07-06T00:05:19;17.40;80.00
8537;DHT22;4306;50.210;10.628;2022-07-06T00:07:47;17.40;80.60
8537;DHT22;4306;50.210;10.628;2022-07-06T00:10:14;17.40;80.60
8537;DHT22;4306;50.210;10.628;2022-07-06T00:12:41;17.40;80.70
8537;DHT22;4306;50.210;10.628;2022-07-06T00:15:08;17.30;81.90
8537;DHT22;4306;50.210;10.628;2022-07-06T00:17:35;17.30;82.20
8537;DHT22;4306;50.210;10.628;2022-07-06T00:20:03;17.20;82.80
8537;DHT22;4306;50.210;10.628;2022-07-06T00:22:30;17.10;83.30
8537;DHT22;4306;50.210;10.628;2022-07-06T00:24:58;17.10;82.30
8537;DHT22;4306;50.210;10.628;2022-07-06T00:27:25;17.10;82.20
8537;DHT22;4306;50.210;10.628;2022-07-06T00:29:52;17.10;82.00
8537;DHT22;4306;50.210;10.628;2022-07-06T00:32:19;17.10;82.00
8537;DHT22;4306;50.210;10.628;2022-07-06T00:34:46;17.10;82.40
8537;DHT22;4306;50.210;10.628;2022-07-06T00:37:13;17.10;81.90
8537;DHT22;4306;50.210;10.628;2022-07-06T00:39:41;17.10;81.90
8537;DHT22;4306;50.210;10.628;2022-07-06T00:42:09;17.00;81.60
8537;DHT22;4306;50.210;10.628;2022-07-06T00:44:36;17.00;81.60
8537;DHT22;4306;50.210;10.628;2022-07-06T00:47:03;17.00;81.30
8537;DHT22;4306;50.210;10.628;2022-07-06T00:49:31;17.00;81.80
8537;DHT22;4306;50.210;10.628;2022-07-06T00:52:15;16.90;81.60
8537;DHT22;4306;50.210;10.628;2022-07-06T00:54:43;16.90;82.20
8537;DHT22;4306;50.210;10.628;2022-07-06T00:57:11;16.80;83.50
8537;DHT22;4306;50.210;10.628;2022-07-06T00:59:38;16.60;84.20
8537;DHT22;4306;50.210;10.628;2022-07-06T01:02:05;16.60;83.20
8537;DHT22;4306;50.210;10.628;2022-07-06T01:04:32;16.50;84.90
8537;DHT22;4306;50.210;10.628;2022-07-06T01:07:00;16.30;85.10
8537;DHT22;4306;50.210;10.628;2022-07-06T01:09:28;16.30;85.00
8537;DHT22;4306;50.210;10.628;2022-07-06T01:11:55;16.30;84.90
8537;DHT22;4306;50.210;10.628;2022-07-06T01:14:23;16.20;85.00
8537;DHT22;4306;50.210;10.628;2022-07-06T01:16:50;16.20;84.50
8537;DHT22;4306;50.210;10.628;2022-07-06T01:19:18;16.10;86.90
8537;DHT22;4306;50.210;10.628;2022-07-06T01:21:46;16.10;87.20
8537;DHT22;4306;50.210;10.628;2022-07-06T01:24:13;16.00;88.00
8537;DHT22;4306;50.210;10.628;2022-07-06T01:26:40;15.90;88.70
8537;DHT22;4306;50.210;10.628;2022-07-06T01:29:07;15.70;89.20
8537;DHT22;4306;50.210;10.628;2022-07-06T01:31:34;15.60;89.70
8537;DHT22;4306;50.210;10.628;2022-07-06T01:34:01;15.60;89.40
8537;DHT22;4306;50.210;10.628;2022-07-06T01:36:27;15.50;89.30
8537;DHT22;4306;50.210;10.628;2022-07-06T01:38:56;15.50;89.30
8537;DHT22;4306;50.210;10.628;2022-07-06T01:41:24;15.50;89.70
8537;DHT22;4306;50.210;10.628;2022-07-06T01:43:52;15.40;90.10
8537;DHT22;4306;50.210;10.628;2022-07-06T01:46:19;15.40;88.50
8537;DHT22;4306;50.210;10.628;2022-07-06T01:48:46;15.50;89.30
8537;DHT22;4306;50.210;10.628;2022-07-06T01:51:13;15.50;87.90
8537;DHT22;4306;50.210;10.628;2022-07-06T01:53:40;15.50;88.50
8537;DHT22;4306;50.210;10.628;2022-07-06T01:56:09;15.50;88.30
8537;DHT22;4306;50.210;10.628;2022-07-06T01:58:37;15.40;87.70
8537;DHT22;4306;50.210;10.628;2022-07-06T02:01:07;15.50;87.60
8537;DHT22;4306;50.210;10.628;2022-07-06T02:03:35;15.50;87.20
8537;DHT22;4306;50.210;10.628;2022-07-06T02:06:02;15.50;87.40
8537;DHT22;4306;50.210;10.628;2022-07-06T02:08:29;15.50;87.40
8537;DHT22;4306;50.210;10.628;2022-07-06T02:10:56;15.40;87.40
8537;DHT22;4306;50.210;10.628;2022-07-06T02:13:25;15.40;87.20
8537;DHT22;4306;50.210;10.628;2022-07-06T02:15:52;15.40;87.10
8537;DHT22;4306;50.210;10.628;2022-07-06T02:18:19;15.40;87.10
8537;DHT22;4306;50.210;10.628;2022-07-06T02:20:46;15.40;87.50
8537;DHT22;4306;50.210;10.628;2022-07-06T02:23:13;15.30;87.50
8537;DHT22;4306;50.210;10.628;2022-07-06T02:25:40;15.30;87.40
8537;DHT22;4306;50.210;10.628;2022-07-06T02:28:06;15.30;88.60
8537;DHT22;4306;50.210;10.628;2022-07-06T02:30:35;15.20;87.80
8537;DHT22;4306;50.210;10.628;2022-07-06T02:33:02;15.20;88.20
8537;DHT22;4306;50.210;10.628;2022-07-06T02:35:29;15.20;89.20
8537;DHT22;4306;50.210;10.628;2022-07-06T02:37:56;15.10;88.50
8537;DHT22;4306;50.210;10.628;2022-07-06T02:40:23;14.90;90.10
8537;DHT22;4306;50.210;10.628;2022-07-06T02:42:49;14.90;90.00
8537;DHT22;4306;50.210;10.628;2022-07-06T02:45:16;14.80;90.00
8537;DHT22;4306;50.210;10.628;2022-07-06T02:47:45;14.90;90.10
8537;DHT22;4306;50.210;10.628;2022-07-06T02:50:12;14.70;90.20
8537;DHT22;4306;50.210;10.628;2022-07-06T02:52:38;14.70;90.40
8537;DHT22;4306;50.210;10.628;2022-07-06T02:55:06;14.60;90.30
8537;DHT22;4306;50.210;10.628;2022-07-06T02:57:33;14.50;90.30
8537;DHT22;4306;50.210;10.628;2022-07-06T03:00:00;14.50;89.90
8537;DHT22;4306;50.210;10.628;2022-07-06T03:02:27;14.60;89.20
8537;DHT22;4306;50.210;10.628;2022-07-06T03:04:56;14.70;89.00
8537;DHT22;4306;50.210;10.628;2022-07-06T03:07:23;14.70;88.50
8537;DHT22;4306;50.210;10.628;2022-07-06T03:09:50;14.80;88.50
8537;DHT22;4306;50.210;10.628;2022-07-06T03:12:17;14.80;88.80
8537;DHT22;4306;50.210;10.628;2022-07-06T03:14:44;14.70;88.50
8537;DHT22;4306;50.210;10.628;2022-07-06T03:17:11;14.70;88.50
8537;DHT22;4306;50.210;10.628;2022-07-06T03:19:37;14.70;88.50
8537;DHT22;4306;50.210;10.628;2022-07-06T03:22:06;14.70;88.00
8537;DHT22;4306;50.210;10.628;2022-07-06T03:24:33;14.70;87.90
8537;DHT22;4306;50.210;10.628;2022-07-06T03:27:00;14.70;87.70
8537;DHT22;4306;50.210;10.628;2022-07-06T03:29:27;14.70;87.50
8537;DHT22;4306;50.210;10.628;2022-07-06T03:31:54;14.70;87.30
8537;DHT22;4306;50.210;10.628;2022-07-06T03:34:20;14.70;87.00
8537;DHT22;4306;50.210;10.628;2022-07-06T03:36:47;14.70;87.60
8537;DHT22;4306;50.210;10.628;2022-07-06T03:39:16;14.60;89.10
8537;DHT22;4306;50.210;10.628;2022-07-06T03:41:43;14.40;89.10
8537;DHT22;4306;50.210;10.628;2022-07-06T03:44:10;14.40;88.70
8537;DHT22;4306;50.210;10.628;2022-07-06T03:46:36;14.40;88.20
8537;DHT22;4306;50.210;10.628;2022-07-06T03:49:03;14.40;89.10
8537;DHT22;4306;50.210;10.628;2022-07-06T03:51:30;14.50;89.00
8537;DHT22;4306;50.210;10.628;2022-07-06T03:53:57;14.50;89.30
8537;DHT22;4306;50.210;10.628;2022-07-06T03:56:26;14.50;89.00
8537;DHT22;4306;50.210;10.628;2022-07-06T03:58:55;14.50;89.40
8537;DHT22;4306;50.210;10.628;2022-07-06T04:01:23;14.50;89.20
8537;DHT22;4306;50.210;10.628;2022-07-06T04:03:50;14.60;88.90
8537;DHT22;4306;50.210;10.628;2022-07-06T04:06:17;14.60;88.40
8537;DHT22;4306;50.210;10.628;2022-07-06T04:08:44;14.60;88.40
8537;DHT22;4306;50.210;10.628;2022-07-06T04:11:11;14.70;88.50
8537;DHT22;4306;50.210;10.628;2022-07-06T04:13:40;14.70;88.50
8537;DHT22;4306;50.210;10.628;2022-07-06T04:16:07;14.70;88.50
8537;DHT22;4306;50.210;10.628;2022-07-06T04:18:34;14.70;88.70
8537;DHT22;4306;50.210;10.628;2022-07-06T04:21:01;14.60;89.20
8537;DHT22;4306;50.210;10.628;2022-07-06T04:23:29;14.60;88.80
8537;DHT22;4306;50.210;10.628;2022-07-06T04:25:56;14.60;88.40
8537;DHT22;4306;50.210;10.628;2022-07-06T04:28:23;14.70;89.20
8537;DHT22;4306;50.210;10.628;2022-07-06T04:30:52;14.70;88.90
8537;DHT22;4306;50.210;10.628;2022-07-06T04:33:18;14.80;89.30
8537;DHT22;4306;50.210;10.628;2022-07-06T04:35:46;14.80;88.80
8537;DHT22;4306;50.210;10.628;2022-07-06T04:38:12;14.90;89.30
8537;DHT22;4306;50.210;10.628;2022-07-06T04:40:40;14.90;89.00
8537;DHT22;4306;50.210;10.628;2022-07-06T04:43:06;15.00;89.20
8537;DHT22;4306;50.210;10.628;2022-07-06T04:45:33;14.90;90.10
8537;DHT22;4306;50.210;10.628;2022-07-06T04:48:02;14.80;90.30
8537;DHT22;4306;50.210;10.628;2022-07-06T04:50:29;14.80;90.10
8537;DHT22;4306;50.210;10.628;2022-07-06T04:52:57;14.80;90.00
8537;DHT22;4306;50.210;10.628;2022-07-06T04:55:24;14.90;90.00
8537;DHT22;4306;50.210;10.628;2022-07-06T04:57:51;15.00;90.10
8537;DHT22;4306;50.210;10.628;2022-07-06T05:00:18;15.10;90.00
8537;DHT22;4306;50.210;10.628;2022-07-06T05:02:45;15.20;90.00
8537;DHT22;4306;50.210;10.628;2022-07-06T05:05:14;15.30;89.80
8537;DHT22;4306;50.210;10.628;2022-07-06T05:07:40;15.30;90.20
8537;DHT22;4306;50.210;10.628;2022-07-06T05:10:09;15.30;89.80
8537;DHT22;4306;50.210;10.628;2022-07-06T05:12:36;15.40;89.60
8537;DHT22;4306;50.210;10.628;2022-07-06T05:15:04;15.50;89.30
8537;DHT22;4306;50.210;10.628;2022-07-06T05:17:31;15.60;89.00
8537;DHT22;4306;50.210;10.628;2022-07-06T05:19:58;15.60;88.80
8537;DHT22;4306;50.210;10.628;2022-07-06T05:22:26;15.60;88.70
8537;DHT22;4306;50.210;10.628;2022-07-06T05:24:53;15.70;88.80
8537;DHT22;4306;50.210;10.628;2022-07-06T05:27:20;15.80;88.90
8537;DHT22;4306;50.210;10.628;2022-07-06T05:29:47;15.90;88.90
8537;DHT22;4306;50.210;10.628;2022-07-06T05:32:14;16.00;88.80
8537;DHT22;4306;50.210;10.628;2022-07-06T05:34:41;16.10;88.30
8537;DHT22;4306;50.210;10.628;2022-07-06T05:37:08;16.20;88.30
8537;DHT22;4306;50.210;10.628;2022-07-06T05:39:37;16.20;88.30
8537;DHT22;4306;50.210;10.628;2022-07-06T05:42:04;16.10;88.00
8537;DHT22;4306;50.210;10.628;2022-07-06T05:44:32;16.30;88.30
8537;DHT22;4306;50.210;10.628;2022-07-06T05:46:59;16.30;88.00
8537;DHT22;4306;50.210;10.628;2022-07-06T05:49:40;16.20;87.50
8537;DHT22;4306;50.210;10.628;2022-07-06T05:52:24;16.20;87.80
8537;DHT22;4306;50.210;10.628;2022-07-06T05:54:52;16.30;87.80
8537;DHT22;4306;50.210;10.628;2022-07-06T05:57:19;16.40;88.00
8537;DHT22;4306;50.210;10.628;2022-07-06T05:59:46;16.40;88.20
8537;DHT22;4306;50.210;10.628;2022-07-06T06:02:13;16.40;88.00
8537;DHT22;4306;50.210;10.628;2022-07-06T06:04:40;16.50;88.00
8537;DHT22;4306;50.210;10.628;2022-07-06T06:07:07;16.60;87.90
8537;DHT22;4306;50.210;10.628;2022-07-06T06:09:34;16.80;87.60
8537;DHT22;4306;50.210;10.628;2022-07-06T06:12:03;16.90;87.40
8537;DHT22;4306;50.210;10.628;2022-07-06T06:14:30;17.00;87.00
8537;DHT22;4306;50.210;10.628;2022-07-06T06:16:57;17.10;87.40
8537;DHT22;4306;50.210;10.628;2022-07-06T06:19:24;17.10;87.00
8537;DHT22;4306;50.210;10.628;2022-07-06T06:21:51;17.10;87.00
8537;DHT22;4306;50.210;10.628;2022-07-06T06:24:18;17.20;87.00
8537;DHT22;4306;50.210;10.628;2022-07-06T06:26:45;17.50;87.10
8537;DHT22;4306;50.210;10.628;2022-07-06T06:29:13;17.40;85.60
8537;DHT22;4306;50.210;10.628;2022-07-06T06:31:40;17.40;86.20
8537;DHT22;4306;50.210;10.628;2022-07-06T06:34:09;17.60;86.10
8537;DHT22;4306;50.210;10.628;2022-07-06T06:36:36;17.60;86.30
8537;DHT22;4306;50.210;10.628;2022-07-06T06:39:03;17.70;86.10
8537;DHT22;4306;50.210;10.628;2022-07-06T06:41:30;17.90;85.60
8537;DHT22;4306;50.210;10.628;2022-07-06T06:43:56;17.90;85.40
8537;DHT22;4306;50.210;10.628;2022-07-06T06:46:25;17.70;85.10
8537;DHT22;4306;50.210;10.628;2022-07-06T06:48:52;17.80;85.60
8537;DHT22;4306;50.210;10.628;2022-07-06T06:51:19;17.80;85.70
8537;DHT22;4306;50.210;10.628;2022-07-06T06:53:46;17.90;85.90
8537;DHT22;4306;50.210;10.628;2022-07-06T06:56:13;17.90;85.10
8537;DHT22;4306;50.210;10.628;2022-07-06T06:58:40;17.70;86.10
8537;DHT22;4306;50.210;10.628;2022-07-06T07:01:07;17.70;86.10
8537;DHT22;4306;50.210;10.628;2022-07-06T07:03:35;17.90;85.70
8537;DHT22;4306;50.210;10.628;2022-07-06T07:06:03;18.00;85.90
8537;DHT22;4306;50.210;10.628;2022-07-06T07:08:30;18.20;85.40
8537;DHT22;4306;50.210;10.628;2022-07-06T07:10:56;18.20;84.20
8537;DHT22;4306;50.210;10.628;2022-07-06T07:13:24;18.40;84.90
8537;DHT22;4306;50.210;10.628;2022-07-06T07:15:51;18.40;83.30
8537;DHT22;4306;50.210;10.628;2022-07-06T07:18:17;18.30;83.30
8537;DHT22;4306;50.210;10.628;2022-07-06T07:20:46;18.20;83.50
8537;DHT22;4306;50.210;10.628;2022-07-06T07:23:13;18.10;84.00
8537;DHT22;4306;50.210;10.628;2022-07-06T07:25:40;18.30;83.70
8537;DHT22;4306;50.210;10.628;2022-07-06T07:28:07;18.50;83.90
8537;DHT22;4306;50.210;10.628;2022-07-06T07:30:34;18.70;83.40
8537;DHT22;4306;50.210;10.628;2022-07-06T07:33:01;18.90;83.90
8537;DHT22;4306;50.210;10.628;2022-07-06T07:35:28;18.90;82.30
8537;DHT22;4306;50.210;10.628;2022-07-06T07:37:56;19.00;82.40
8537;DHT22;4306;50.210;10.628;2022-07-06T07:40:23;18.80;82.00
8537;DHT22;4306;50.210;10.628;2022-07-06T07:42:50;18.80;82.30
8537;DHT22;4306;50.210;10.628;2022-07-06T07:45:17;18.80;81.90
8537;DHT22;4306;50.210;10.628;2022-07-06T07:47:44;19.00;81.90
8537;DHT22;4306;50.210;10.628;2022-07-06T07:50:11;19.20;81.40
8537;DHT22;4306;50.210;10.628;2022-07-06T07:52:39;19.30;78.80
8537;DHT22;4306;50.210;10.628;2022-07-06T07:55:08;19.10;77.90
8537;DHT22;4306;50.210;10.628;2022-07-06T07:57:35;19.20;77.60
8537;DHT22;4306;50.210;10.628;2022-07-06T08:00:03;19.20;77.60
8537;DHT22;4306;50.210;10.628;2022-07-06T08:02:31;19.20;77.20
8537;DHT22;4306;50.210;10.628;2022-07-06T08:04:58;19.30;77.20
8537;DHT22;4306;50.210;10.628;2022-07-06T08:07:25;19.40;77.00
8537;DHT22;4306;50.210;10.628;2022-07-06T08:09:51;19.40;77.20
8537;DHT22;4306;50.210;10.628;2022-07-06T08:12:20;19.30;76.70
8537;DHT22;4306;50.210;10.628;2022-07-06T08:14:47;19.40;76.40
8537;DHT22;4306;50.210;10.628;2022-07-06T08:17:14;19.40;76.20
8537;DHT22;4306;50.210;10.628;2022-07-06T08:19:41;19.40;75.40
8537;DHT22;4306;50.210;10.628;2022-07-06T08:22:07;19.40;76.10
8537;DHT22;4306;50.210;10.628;2022-07-06T08:24:35;19.50;75.70
8537;DHT22;4306;50.210;10.628;2022-07-06T08:27:03;19.40;75.20
8537;DHT22;4306;50.210;10.628;2022-07-06T08:29:31;19.80;75.30
8537;DHT22;4306;50.210;10.628;2022-07-06T08:31:58;19.50;74.80
8537;DHT22;4306;50.210;10.628;2022-07-06T08:34:25;19.40;75.60
8537;DHT22;4306;50.210;10.628;2022-07-06T08:36:52;19.40;75.50
8537;DHT22;4306;50.210;10.628;2022-07-06T08:39:19;19.60;76.20
8537;DHT22;4306;50.210;10.628;2022-07-06T08:41:47;19.90;76.10
8537;DHT22;4306;50.210;10.628;2022-07-06T08:44:15;20.00;75.10
8537;DHT22;4306;50.210;10.628;2022-07-06T08:46:44;20.20;75.20
8537;DHT22;4306;50.210;10.628;2022-07-06T08:49:14;20.20;73.70
8537;DHT22;4306;50.210;10.628;2022-07-06T08:51:42;20.40;74.50
8537;DHT22;4306;50.210;10.628;2022-07-06T08:54:10;20.70;74.80
8537;DHT22;4306;50.210;10.628;2022-07-06T08:56:37;20.70;74.60
8537;DHT22;4306;50.210;10.628;2022-07-06T08:59:05;20.70;73.80
8537;DHT22;4306;50.210;10.628;2022-07-06T09:01:35;20.60;72.60
8537;DHT22;4306;50.210;10.628;2022-07-06T09:04:05;20.50;73.30
8537;DHT22;4306;50.210;10.628;2022-07-06T09:06:33;20.60;72.70
8537;DHT22;4306;50.210;10.628;2022-07-06T09:09:05;20.60;72.90
8537;DHT22;4306;50.210;10.628;2022-07-06T09:11:33;20.60;72.20
8537;DHT22;4306;50.210;10.628;2022-07-06T09:14:01;20.30;73.20
8537;DHT22;4306;50.210;10.628;2022-07-06T09:16:29;20.60;73.40
8537;DHT22;4306;50.210;10.628;2022-07-06T09:18:58;20.60;73.50
8537;DHT22;4306;50.210;10.628;2022-07-06T09:21:28;20.80;73.20
8537;DHT22;4306;50.210;10.628;2022-07-06T09:23:58;20.70;72.90
8537;DHT22;4306;50.210;10.628;2022-07-06T09:26:26;20.80;74.00
8537;DHT22;4306;50.210;10.628;2022-07-06T09:28:56;20.50;72.90
8537;DHT22;4306;50.210;10.628;2022-07-06T09:31:23;20.70;73.60
8537;DHT22;4306;50.210;10.628;2022-07-06T09:33:54;20.80;73.20
8537;DHT22;4306;50.210;10.628;2022-07-06T09:36:38;20.80;70.30
8537;DHT22;4306;50.210;10.628;2022-07-06T09:39:19;20.90;67.50
8537;DHT22;4306;50.210;10.628;2022-07-06T09:41:46;21.10;70.10
8537;DHT22;4306;50.210;10.628;2022-07-06T09:44:18;21.30;69.00
8537;DHT22;4306;50.210;10.628;2022-07-06T09:46:47;21.30;67.90
8537;DHT22;4306;50.210;10.628;2022-07-06T09:49:17;21.00;68.70
8537;DHT22;4306;50.210;10.628;2022-07-06T09:51:47;21.30;69.60
8537;DHT22;4306;50.210;10.628;2022-07-06T09:54:15;21.50;70.00
8537;DHT22;4306;50.210;10.628;2022-07-06T09:56:44;21.40;70.40
8537;DHT22;4306;50.210;10.628;2022-07-06T09:59:15;21.60;70.40
8537;DHT22;4306;50.210;10.628;2022-07-06T10:01:42;21.60;70.60
8537;DHT22;4306;50.210;10.628;2022-07-06T10:04:11;21.80;70.10
8537;DHT22;4306;50.210;10.628;2022-07-06T10:06:40;21.50;68.90
8537;DHT22;4306;50.210;10.628;2022-07-06T10:09:10;21.50;69.30
8537;DHT22;4306;50.210;10.628;2022-07-06T10:11:39;21.30;68.30
8537;DHT22;4306;50.210;10.628;2022-07-06T10:14:07;21.20;66.80
8537;DHT22;4306;50.210;10.628;2022-07-06T10:16:35;21.10;67.00
8537;DHT22;4306;50.210;10.628;2022-07-06T10:19:05;21.40;67.80
8537;DHT22;4306;50.210;10.628;2022-07-06T10:21:33;21.30;66.80
8537;DHT22;4306;50.210;10.628;2022-07-06T10:24:03;21.00;66.80
8537;DHT22;4306;50.210;10.628;2022-07-06T10:26:32;21.30;67.60
8537;DHT22;4306;50.210;10.628;2022-07-06T10:28:59;21.40;66.40
8537;DHT22;4306;50.210;10.628;2022-07-06T10:31:27;21.00;67.00
8537;DHT22;4306;50.210;10.628;2022-07-06T10:33:56;20.80;66.20
8537;DHT22;4306;50.210;10.628;2022-07-06T10:36:24;20.90;67.10
8537;DHT22;4306;50.210;10.628;2022-07-06T10:38:52;21.10;66.10
8537;DHT22;4306;50.210;10.628;2022-07-06T10:41:32;21.10;65.10
8537;DHT22;4306;50.210;10.628;2022-07-06T10:44:16;21.40;66.50
8537;DHT22;4306;50.210;10.628;2022-07-06T10:46:50;21.70;66.30
8537;DHT22;4306;50.210;10.628;2022-07-06T10:49:18;21.80;64.90
8537;DHT22;4306;50.210;10.628;2022-07-06T10:51:46;21.80;64.10
8537;DHT22;4306;50.210;10.628;2022-07-06T10:54:15;21.90;64.40
8537;DHT22;4306;50.210;10.628;2022-07-06T10:56:46;22.20;65.10
8537;DHT22;4306;50.210;10.628;2022-07-06T10:59:14;21.80;64.80
8537;DHT22;4306;50.210;10.628;2022-07-06T11:02:10;21.80;65.10
8537;DHT22;4306;50.210;10.628;2022-07-06T11:04:33;21.80;65.10
8537;DHT22;4306;50.210;10.628;2022-07-06T11:07:07;21.80;64.00
8537;DHT22;4306;50.210;10.628;2022-07-06T11:09:35;21.50;65.10
8537;DHT22;4306;50.210;10.628;2022-07-06T11:12:15;21.60;65.70
8537;DHT22;4306;50.210;10.628;2022-07-06T11:14:44;21.90;65.30
8537;DHT22;4306;50.210;10.628;2022-07-06T11:17:12;22.10;64.40
8537;DHT22;4306;50.210;10.628;2022-07-06T11:19:48;22.10;64.30
8537;DHT22;4306;50.210;10.628;2022-07-06T11:22:17;22.10;63.90
8537;DHT22;4306;50.210;10.628;2022-07-06T11:24:45;21.70;62.80
8537;DHT22;4306;50.210;10.628;2022-07-06T11:27:14;21.90;64.10
8537;DHT22;4306;50.210;10.628;2022-07-06T11:29:41;22.30;64.50
8537;DHT22;4306;50.210;10.628;2022-07-06T11:32:09;22.40;62.50
8537;DHT22;4306;50.210;10.628;2022-07-06T11:34:37;22.20;61.60
8537;DHT22;4306;50.210;10.628;2022-07-06T11:37:06;21.80;62.40
8537;DHT22;4306;50.210;10.628;2022-07-06T11:39:35;21.80;62.90
8537;DHT22;4306;50.210;10.628;2022-07-06T11:42:03;21.90;63.70
8537;DHT22;4306;50.210;10.628;2022-07-06T11:44:33;21.80;62.90
8537;DHT22;4306;50.210;10.628;2022-07-06T11:47:00;22.00;62.90
8537;DHT22;4306;50.210;10.628;2022-07-06T11:49:29;22.10;62.40
8537;DHT22;4306;50.210;10.628;2022-07-06T11:51:57;22.40;64.10
8537;DHT22;4306;50.210;10.628;2022-07-06T11:54:25;22.30;62.40
8537;DHT22;4306;50.210;10.628;2022-07-06T11:56:53;22.60;62.90
8537;DHT22;4306;50.210;10.628;2022-07-06T11:59:22;22.70;62.00
8537;DHT22;4306;50.210;10.628;2022-07-06T12:01:58;22.90;61.80
8537;DHT22;4306;50.210;10.628;2022-07-06T12:04:25;22.90;59.30
8537;DHT22;4306;50.210;10.628;2022-07-06T12:06:52;22.40;59.00
8537;DHT22;4306;50.210;10.628;2022-07-06T12:09:19;22.70;59.00
8537;DHT22;4306;50.210;10.628;2022-07-06T12:11:47;22.30;58.90
8537;DHT22;4306;50.210;10.628;2022-07-06T12:14:16;22.20;60.20
8537;DHT22;4306;50.210;10.628;2022-07-06T12:16:45;22.10;59.70
8537;DHT22;4306;50.210;10.628;2022-07-06T12:19:13;22.30;58.80
8537;DHT22;4306;50.210;10.628;2022-07-06T12:21:48;22.30;58.00
8537;DHT22;4306;50.210;10.628;2022-07-06T12:24:19;22.30;60.10
8537;DHT22;4306;50.210;10.628;2022-07-06T12:26:47;22.40;59.20
8537;DHT22;4306;50.210;10.628;2022-07-06T12:29:15;22.70;58.80
8537;DHT22;4306;50.210;10.628;2022-07-06T12:31:43;22.70;58.30
8537;DHT22;4306;50.210;10.628;2022-07-06T12:34:17;22.50;57.90
8537;DHT22;4306;50.210;10.628;2022-07-06T12:36:45;22.50;58.10
8537;DHT22;4306;50.210;10.628;2022-07-06T12:39:13;22.30;57.80
8537;DHT22;4306;50.210;10.628;2022-07-06T12:41:45;22.40;57.20
8537;DHT22;4306;50.210;10.628;2022-07-06T12:44:12;22.50;56.90
8537;DHT22;4306;50.210;10.628;2022-07-06T12:46:40;22.60;56.70
8537;DHT22;4306;50.210;10.628;2022-07-06T12:49:16;22.80;55.60
8537;DHT22;4306;50.210;10.628;2022-07-06T12:51:58;22.70;54.70
8537;DHT22;4306;50.210;10.628;2022-07-06T12:54:28;22.50;55.50
8537;DHT22;4306;50.210;10.628;2022-07-06T12:56:57;22.80;56.70
8537;DHT22;4306;50.210;10.628;2022-07-06T12:59:24;22.90;56.40
8537;DHT22;4306;50.210;10.628;2022-07-06T13:01:52;22.50;55.30
8537;DHT22;4306;50.210;10.628;2022-07-06T13:04:22;22.50;55.70
8537;DHT22;4306;50.210;10.628;2022-07-06T13:06:50;22.50;56.30
8537;DHT22;4306;50.210;10.628;2022-07-06T13:09:17;22.40;55.80
8537;DHT22;4306;50.210;10.628;2022-07-06T13:11:45;22.40;56.10
8537;DHT22;4306;50.210;10.628;2022-07-06T13:14:12;22.50;55.80
8537;DHT22;4306;50.210;10.628;2022-07-06T13:16:39;22.40;55.20
8537;DHT22;4306;50.210;10.628;2022-07-06T13:19:06;22.40;55.60
8537;DHT22;4306;50.210;10.628;2022-07-06T13:21:34;22.60;54.40
8537;DHT22;4306;50.210;10.628;2022-07-06T13:24:02;22.80;54.70
8537;DHT22;4306;50.210;10.628;2022-07-06T13:26:29;22.50;54.00
8537;DHT22;4306;50.210;10.628;2022-07-06T13:28:59;22.80;55.00
8537;DHT22;4306;50.210;10.628;2022-07-06T13:31:26;22.90;54.60
8537;DHT22;4306;50.210;10.628;2022-07-06T13:33:54;23.10;54.80
8537;DHT22;4306;50.210;10.628;2022-07-06T13:36:22;23.30;55.60
8537;DHT22;4306;50.210;10.628;2022-07-06T13:38:50;23.20;54.50
8537;DHT22;4306;50.210;10.628;2022-07-06T13:41:18;22.80;54.40
8537;DHT22;4306;50.210;10.628;2022-07-06T13:43:46;23.00;55.60
8537;DHT22;4306;50.210;10.628;2022-07-06T13:46:13;23.30;55.20
8537;DHT22;4306;50.210;10.628;2022-07-06T13:48:42;23.30;53.10
8537;DHT22;4306;50.210;10.628;2022-07-06T13:51:10;23.10;52.10
8537;DHT22;4306;50.210;10.628;2022-07-06T13:53:37;23.00;53.40
8537;DHT22;4306;50.210;10.628;2022-07-06T13:56:06;22.70;53.50
8537;DHT22;4306;50.210;10.628;2022-07-06T13:58:34;22.90;54.00
8537;DHT22;4306;50.210;10.628;2022-07-06T14:01:02;23.30;54.80
8537;DHT22;4306;50.210;10.628;2022-07-06T14:03:29;23.50;52.60
8537;DHT22;4306;50.210;10.628;2022-07-06T14:05:58;23.30;52.40
8537;DHT22;4306;50.210;10.628;2022-07-06T14:08:26;23.10;52.20
8537;DHT22;4306;50.210;10.628;2022-07-06T14:10:53;23.10;51.50
8537;DHT22;4306;50.210;10.628;2022-07-06T14:13:22;23.40;52.60
8537;DHT22;4306;50.210;10.628;2022-07-06T14:15:50;23.70;51.90
8537;DHT22;4306;50.210;10.628;2022-07-06T14:18:16;23.40;52.50
8537;DHT22;4306;50.210;10.628;2022-07-06T14:20:45;23.20;52.00
8537;DHT22;4306;50.210;10.628;2022-07-06T14:23:12;23.00;52.60
8537;DHT22;4306;50.210;10.628;2022-07-06T14:25:40;23.10;53.30
8537;DHT22;4306;50.210;10.628;2022-07-06T14:28:08;22.80;53.70
8537;DHT22;4306;50.210;10.628;2022-07-06T14:30:36;22.80;53.80
8537;DHT22;4306;50.210;10.628;2022-07-06T14:33:05;22.90;53.60
8537;DHT22;4306;50.210;10.628;2022-07-06T14:35:34;23.00;53.70
8537;DHT22;4306;50.210;10.628;2022-07-06T14:38:02;23.20;53.20
8537;DHT22;4306;50.210;10.628;2022-07-06T14:40:30;23.20;53.60
8537;DHT22;4306;50.210;10.628;2022-07-06T14:42:57;23.10;52.70
8537;DHT22;4306;50.210;10.628;2022-07-06T14:45:24;22.90;53.00
8537;DHT22;4306;50.210;10.628;2022-07-06T14:47:53;22.70;53.50
8537;DHT22;4306;50.210;10.628;2022-07-06T14:50:20;22.90;53.90
8537;DHT22;4306;50.210;10.628;2022-07-06T14:52:49;23.20;54.20
8537;DHT22;4306;50.210;10.628;2022-07-06T14:55:16;23.50;53.80
8537;DHT22;4306;50.210;10.628;2022-07-06T14:57:43;23.60;53.10
8537;DHT22;4306;50.210;10.628;2022-07-06T15:00:11;23.70;52.70
8537;DHT22;4306;50.210;10.628;2022-07-06T15:02:39;23.40;52.50
8537;DHT22;4306;50.210;10.628;2022-07-06T15:05:08;23.50;53.00
8537;DHT22;4306;50.210;10.628;2022-07-06T15:07:34;23.50;53.10
8537;DHT22;4306;50.210;10.628;2022-07-06T15:10:03;23.20;52.80
8537;DHT22;4306;50.210;10.628;2022-07-06T15:12:31;22.90;53.00
8537;DHT22;4306;50.210;10.628;2022-07-06T15:14:58;22.80;52.80
8537;DHT22;4306;50.210;10.628;2022-07-06T15:17:25;22.60;53.80
8537;DHT22;4306;50.210;10.628;2022-07-06T15:19:53;22.80;54.00
8537;DHT22;4306;50.210;10.628;2022-07-06T15:22:21;23.00;54.80
8537;DHT22;4306;50.210;10.628;2022-07-06T15:24:48;23.20;54.10
8537;DHT22;4306;50.210;10.628;2022-07-06T15:27:15;23.20;52.90
8537;DHT22;4306;50.210;10.628;2022-07-06T15:29:42;23.10;53.70
8537;DHT22;4306;50.210;10.628;2022-07-06T15:32:09;23.10;53.00
8537;DHT22;4306;50.210;10.628;2022-07-06T15:34:36;23.10;53.30
8537;DHT22;4306;50.210;10.628;2022-07-06T15:37:03;23.20;53.10
8537;DHT22;4306;50.210;10.628;2022-07-06T15:39:32;23.30;53.60
8537;DHT22;4306;50.210;10.628;2022-07-06T15:41:58;23.40;53.10
8537;DHT22;4306;50.210;10.628;2022-07-06T15:44:25;23.40;53.70
8537;DHT22;4306;50.210;10.628;2022-07-06T15:46:52;23.20;53.70
8537;DHT22;4306;50.210;10.628;2022-07-06T15:49:19;23.20;53.70